メインページ
METAR-TAF:

METAR-TAF

空港 :

アブダビ国際空港

アブダビ, アラブ首長国連邦

緯度: 24-26N, 経度: 054-39E, 海抜: 16m

現時点の気象観測

当レポートは1時間3分前の20:00(UTC)に作成
の風 5kt、北/北西から北東の間で変化する
気温 36°C
湿度 33%
気圧 995 hPa
視程10km以上
1,500メートル以下は雲なし、積乱雲なし

METAR: OMAA 212000Z 01005KT 340V050 CAVOK 36/17 Q0995 NOSIG

時間: 01:03 (21:03 UTC)

予報

当レポートは4時間3分前の17:00(UTC)に作成
予報は21日の 18時(UTC)から 23日の 00時(UTC)まで有効
北東の風 5kt
視程10km以上
1,500メートル以下は雲なし、積乱雲なし
確率 30%
22日の 00時(UTC)から 22日の 04時(UTC)まで
変向風 2kt
視程: 4000m
煙霧
22日の 07時(UTC)から 22日の 09時(UTC)まで徐々に
西/北西の風 15kt
22日の 18時(UTC)から 22日の 20時(UTC)まで徐々に
南西の風 5kt

TAF: OMAA 211700Z 2118/2300 04005KT CAVOK PROB30 2200/2204 VRB02KT 4000 HZ BECMG 2207/2209 30015KT BECMG 2218/2220 22005KT

4,000以上の空港の気象観測と天気予報(METAR報とTAF報)

利用可能な観測所は地図上に黄色い丸と赤い丸で示す。

丸の上にカーソルを重ねると観測所名を参照できる。

次にクリックすると気象観測と天気予報を参照できる。

マップの切り替え:黒色「×」印の緑ボタンをクリックして拡大、「-」印の緑ボタンをクリックして縮小、緑色の三角印をクリックして隣りの地図に切り替え


METAR-TAF: